Time;durP1;ratioP1;P1;durP2;ratioP2;P2;SDS_P1;SDS_P2;PMS_P1;PMS_P2;Temp;Humidity;BMP_temperature;BMP_pressure;BME280_temperature;BME280_humidity;BME280_pressure;Samples;Min_cycle;Max_cycle;Signal;HPM_P1;HPM_P2
2023/01/06 00:00:39;;;;;;;6.13;5.53;;;10.00;99.90;;;;;;5019502;28;20490;-65
2023/01/06 00:03:08;;;;;;;13.47;5.50;;;10.00;99.90;;;;;;5019669;28;20449;-64
2023/01/06 00:05:35;;;;;;;8.60;6.17;;;9.90;99.90;;;;;;5019172;28;20488;-64
2023/01/06 00:08:02;;;;;;;8.47;5.30;;;9.90;99.90;;;;;;5017369;28;20541;-63
2023/01/06 00:10:29;;;;;;;6.93;5.93;;;9.90;99.90;;;;;;5017688;28;20470;-63
2023/01/06 00:12:56;;;;;;;9.70;4.97;;;9.90;99.90;;;;;;5016872;28;20456;-62
2023/01/06 00:15:23;;;;;;;8.03;4.43;;;9.90;99.90;;;;;;5017335;28;20754;-63
2023/01/06 00:17:52;;;;;;;5.70;4.07;;;9.90;99.90;;;;;;5017671;28;20471;-64
2023/01/06 00:20:19;;;;;;;5.70;4.20;;;9.90;99.90;;;;;;5016486;28;20475;-62
2023/01/06 00:22:46;;;;;;;8.23;3.80;;;9.90;99.90;;;;;;5018249;28;20449;-61
2023/01/06 00:25:13;;;;;;;7.33;3.50;;;9.90;99.90;;;;;;5018655;28;20443;-62
2023/01/06 00:27:40;;;;;;;6.67;3.77;;;9.90;99.90;;;;;;5018617;28;20499;-63
2023/01/06 00:30:09;;;;;;;4.03;2.97;;;9.90;99.90;;;;;;5018711;28;20464;-62
2023/01/06 00:32:36;;;;;;;8.47;3.37;;;9.80;99.90;;;;;;5018782;28;20460;-63
2023/01/06 00:35:05;;;;;;;9.77;3.63;;;9.90;99.90;;;;;;5019107;28;20468;-62
2023/01/06 00:37:32;;;;;;;6.30;2.83;;;9.90;99.90;;;;;;5018580;28;20470;-62
2023/01/06 00:40:00;;;;;;;5.10;2.93;;;9.80;99.90;;;;;;5018449;28;20753;-62
2023/01/06 00:42:27;;;;;;;4.57;2.47;;;9.90;99.90;;;;;;5019192;28;20441;-62
2023/01/06 00:44:54;;;;;;;6.10;2.87;;;9.90;99.90;;;;;;5019066;28;20725;-62
2023/01/06 00:47:21;;;;;;;3.70;2.27;;;9.80;99.90;;;;;;5018536;28;20466;-62
2023/01/06 00:49:49;;;;;;;5.90;3.00;;;9.90;99.90;;;;;;5018757;28;20466;-62
2023/01/06 00:52:17;;;;;;;3.43;2.90;;;9.90;99.90;;;;;;5018405;28;20465;-61
2023/01/06 00:54:44;;;;;;;7.60;2.93;;;9.90;99.90;;;;;;5017894;28;20445;-62
2023/01/06 00:57:12;;;;;;;4.90;3.60;;;9.90;99.90;;;;;;5018494;28;20460;-60
2023/01/06 00:59:39;;;;;;;5.90;3.67;;;9.90;99.90;;;;;;5018515;28;20554;-62
2023/01/06 01:02:06;;;;;;;5.53;4.60;;;9.90;99.90;;;;;;5018006;28;20471;-62
2023/01/06 01:04:33;;;;;;;8.00;3.70;;;9.90;99.90;;;;;;5018254;28;20559;-62
2023/01/06 01:07:00;;;;;;;4.60;3.70;;;9.90;99.90;;;;;;5017895;28;20500;-62
2023/01/06 01:09:31;;;;;;;5.43;4.20;;;9.90;99.90;;;;;;5017298;28;20842;-62
2023/01/06 01:12:11;;;;;;;8.70;4.40;;;9.90;99.90;;;;;;5017843;28;20556;-62
2023/01/06 01:14:40;;;;;;;6.90;4.17;;;9.90;99.90;;;;;;5017964;28;20526;-62
2023/01/06 01:17:08;;;;;;;5.27;4.03;;;9.90;99.90;;;;;;5018011;28;20461;-62
2023/01/06 01:19:36;;;;;;;6.40;3.90;;;9.80;99.90;;;;;;5017997;28;20464;-62
2023/01/06 01:22:03;;;;;;;7.90;3.90;;;9.90;99.90;;;;;;5017857;28;20752;-60
2023/01/06 01:24:32;;;;;;;6.87;4.40;;;9.90;99.90;;;;;;5017697;28;20474;-61
2023/01/06 01:26:59;;;;;;;7.47;4.60;;;9.80;99.90;;;;;;5018069;28;20773;-59
2023/01/06 01:29:27;;;;;;;6.73;4.77;;;9.90;99.90;;;;;;5017875;28;20566;-61
2023/01/06 01:31:54;;;;;;;6.70;3.87;;;9.90;99.90;;;;;;5017303;28;20468;-61
2023/01/06 01:34:22;;;;;;;10.47;5.87;;;9.90;99.90;;;;;;5017593;28;20474;-61
2023/01/06 01:36:50;;;;;;;7.87;4.23;;;9.80;99.90;;;;;;5017520;28;20460;-60
2023/01/06 01:39:20;;;;;;;5.80;4.07;;;9.90;99.90;;;;;;5017675;28;20430;-61
2023/01/06 01:41:49;;;;;;;6.23;3.30;;;9.90;99.90;;;;;;5017317;28;20734;-61
2023/01/06 01:45:08;;;;;;;4.50;3.80;;;9.90;99.90;;;;;;5017516;28;20460;-60
2023/01/06 01:47:42;;;;;;;9.77;4.00;;;9.80;99.90;;;;;;4937535;29;20840;-61
2023/01/06 01:50:17;;;;;;;6.30;3.97;;;9.80;99.90;;;;;;4938107;29;20459;-60
2023/01/06 01:52:46;;;;;;;7.47;4.20;;;9.80;99.90;;;;;;4981116;28;20468;-61
2023/01/06 01:55:15;;;;;;;5.17;3.57;;;9.80;99.90;;;;;;5017548;28;20760;-59
2023/01/06 01:57:48;;;;;;;3.70;3.10;;;9.80;99.90;;;;;;5017047;28;20460;-61
2023/01/06 02:00:15;;;;;;;3.73;3.20;;;9.80;99.90;;;;;;5016960;28;20483;-60
2023/01/06 02:02:43;;;;;;;5.97;3.33;;;9.80;99.90;;;;;;5017321;28;20459;-61
2023/01/06 02:05:12;;;;;;;6.43;3.87;;;9.80;99.90;;;;;;5017164;28;20471;-60
2023/01/06 02:07:40;;;;;;;6.27;3.70;;;9.80;99.90;;;;;;5017611;28;20503;-61
2023/01/06 02:10:12;;;;;;;6.30;3.90;;;9.80;99.90;;;;;;5017274;28;20550;-60
2023/01/06 02:12:39;;;;;;;7.20;4.60;;;9.80;99.90;;;;;;5017084;28;20521;-60
2023/01/06 02:15:20;;;;;;;11.03;3.80;;;9.70;99.90;;;;;;5017336;28;20544;-58
2023/01/06 02:18:14;;;;;;;5.20;3.87;;;9.70;99.90;;;;;;5017890;28;20430;-59
2023/01/06 02:20:58;;;;;;;6.80;3.70;;;9.80;99.90;;;;;;5014043;28;20823;-61
2023/01/06 02:24:06;;;;;;;6.80;3.90;;;9.70;99.90;;;;;;5017413;28;20701;-62
2023/01/06 02:27:16;;;;;;;7.70;3.90;;;9.70;99.90;;;;;;5023893;28;20964;-61
2023/01/06 02:30:10;;;;;;;6.20;3.53;;;9.80;99.90;;;;;;4992464;28;20472;-57
2023/01/06 02:32:51;;;;;;;5.60;3.80;;;9.70;99.90;;;;;;5025292;28;20445;-60
2023/01/06 02:35:40;;;;;;;4.97;3.47;;;9.80;99.90;;;;;;5015733;28;20493;-59
2023/01/06 02:38:20;;;;;;;5.60;3.73;;;9.70;99.90;;;;;;5024014;28;20462;-61
2023/01/06 02:41:03;;;;;;;6.53;3.03;;;9.70;99.90;;;;;;5015517;28;20467;-60
2023/01/06 02:43:43;;;;;;;7.70;3.70;;;9.70;99.90;;;;;;5029409;28;20775;-58
2023/01/06 02:46:19;;;;;;;7.60;3.73;;;9.70;99.90;;;;;;5030404;28;20455;-60
2023/01/06 02:48:57;;;;;;;7.03;3.70;;;9.70;99.90;;;;;;5029526;28;20501;-60
2023/01/06 02:51:31;;;;;;;8.00;3.90;;;9.70;99.90;;;;;;5025558;28;20904;-58
2023/01/06 02:54:08;;;;;;;7.20;3.50;;;9.70;99.90;;;;;;5020477;28;20775;-60
2023/01/06 02:56:41;;;;;;;6.23;3.87;;;9.70;99.90;;;;;;5019987;28;20468;-61
2023/01/06 02:59:14;;;;;;;5.50;3.70;;;9.70;99.90;;;;;;5019484;28;20471;-61
2023/01/06 03:01:44;;;;;;;4.40;3.47;;;9.70;99.90;;;;;;5020948;28;20463;-58
2023/01/06 03:04:17;;;;;;;4.30;3.13;;;9.70;99.90;;;;;;5020764;28;20464;-61
2023/01/06 03:06:48;;;;;;;5.60;3.60;;;9.70;99.90;;;;;;5020161;28;20497;-61
2023/01/06 03:09:19;;;;;;;5.13;3.83;;;9.70;99.90;;;;;;5019995;28;20464;-59
2023/01/06 03:11:50;;;;;;;4.03;3.00;;;9.70;99.90;;;;;;5020415;28;20566;-59
2023/01/06 03:14:22;;;;;;;5.80;3.87;;;9.70;99.90;;;;;;5020050;28;20470;-62
2023/01/06 03:16:49;;;;;;;5.33;2.93;;;9.70;99.90;;;;;;5020215;28;20475;-59
2023/01/06 03:19:18;;;;;;;9.50;3.87;;;9.70;99.90;;;;;;5019446;28;20445;-62
2023/01/06 03:21:47;;;;;;;11.50;3.73;;;9.70;99.90;;;;;;5020218;28;20494;-61
2023/01/06 03:24:15;;;;;;;6.07;2.90;;;9.60;99.90;;;;;;5020176;28;20904;-61
2023/01/06 03:26:44;;;;;;;3.63;2.43;;;9.60;99.90;;;;;;5020147;28;20471;-62
2023/01/06 03:29:14;;;;;;;5.67;3.07;;;9.70;99.90;;;;;;5056359;28;20921;-62
2023/01/06 03:31:48;;;;;;;8.27;2.57;;;9.60;99.90;;;;;;5059721;28;20444;-62
2023/01/06 03:34:23;;;;;;;4.67;2.43;;;9.70;99.90;;;;;;5051678;28;20764;-60
2023/01/06 03:36:57;;;;;;;5.83;2.47;;;9.70;99.90;;;;;;5019786;28;20470;-61
2023/01/06 03:39:34;;;;;;;5.83;2.27;;;9.70;99.90;;;;;;5019416;28;20471;-60
2023/01/06 03:44:58;;;;;;;6.47;2.73;;;9.70;99.90;;;;;;5019575;28;20409;-60
2023/01/06 03:47:33;;;;;;;3.97;3.40;;;9.60;99.90;;;;;;5019802;28;20769;-60
2023/01/06 03:50:09;;;;;;;6.20;2.70;;;9.60;99.90;;;;;;5019208;28;20478;-60
2023/01/06 03:52:43;;;;;;;6.00;2.90;;;9.60;99.90;;;;;;5038923;28;20459;-61
2023/01/06 03:55:17;;;;;;;4.00;2.43;;;9.60;99.90;;;;;;5037909;28;20463;-62
2023/01/06 03:57:47;;;;;;;4.43;2.00;;;9.60;99.90;;;;;;5038257;28;20443;-61
2023/01/06 04:00:18;;;;;;;6.83;2.70;;;9.60;99.90;;;;;;5038788;28;20992;-62
2023/01/06 04:02:46;;;;;;;8.73;3.60;;;9.60;99.90;;;;;;5037515;28;20473;-62
2023/01/06 04:05:17;;;;;;;5.13;2.60;;;9.60;99.90;;;;;;5037258;28;20467;-62
2023/01/06 04:07:45;;;;;;;3.50;2.87;;;9.60;99.90;;;;;;5037508;28;20495;-61
2023/01/06 04:10:13;;;;;;;5.23;2.27;;;9.60;99.90;;;;;;5037563;28;20467;-60
2023/01/06 04:12:40;;;;;;;4.50;2.90;;;9.60;99.90;;;;;;5037345;28;20758;-61
2023/01/06 04:15:09;;;;;;;7.33;4.00;;;9.60;99.90;;;;;;5037014;28;20455;-61
2023/01/06 04:17:37;;;;;;;4.90;2.53;;;9.60;99.90;;;;;;5038826;28;20465;-61
2023/01/06 04:20:05;;;;;;;5.70;3.00;;;9.60;99.90;;;;;;5038312;28;20474;-61
2023/01/06 04:22:34;;;;;;;4.53;2.30;;;9.60;99.90;;;;;;5038647;28;20466;-61
2023/01/06 04:25:01;;;;;;;6.23;2.70;;;9.50;99.90;;;;;;5039096;28;20442;-61
2023/01/06 04:27:28;;;;;;;5.90;2.90;;;9.50;99.90;;;;;;5038691;28;20498;-62
2023/01/06 04:29:55;;;;;;;5.20;2.30;;;9.50;99.90;;;;;;5037408;28;20463;-61
2023/01/06 04:32:22;;;;;;;4.33;2.37;;;9.50;99.90;;;;;;5038469;28;20865;-60
2023/01/06 04:34:49;;;;;;;5.43;2.60;;;9.50;99.90;;;;;;5038576;28;20467;-62
2023/01/06 04:37:17;;;;;;;6.20;2.70;;;9.50;99.90;;;;;;5038610;28;20767;-61
2023/01/06 04:39:45;;;;;;;4.20;2.40;;;9.50;99.90;;;;;;5038579;28;20463;-61
2023/01/06 04:42:13;;;;;;;11.13;2.93;;;9.50;99.90;;;;;;5038128;28;20441;-59
2023/01/06 04:44:41;;;;;;;7.53;2.90;;;9.50;99.90;;;;;;5038209;28;20458;-62
2023/01/06 04:47:08;;;;;;;5.80;2.80;;;9.50;99.90;;;;;;5038545;28;20467;-62
2023/01/06 04:49:36;;;;;;;5.90;2.80;;;9.50;99.90;;;;;;5038812;28;20463;-62
2023/01/06 04:52:04;;;;;;;4.90;2.40;;;9.50;99.90;;;;;;5038286;28;20490;-60
2023/01/06 04:54:31;;;;;;;7.00;2.77;;;9.50;99.90;;;;;;5038257;28;20463;-61
2023/01/06 04:56:59;;;;;;;5.57;2.87;;;9.50;99.90;;;;;;5038351;28;20772;-63
2023/01/06 04:59:27;;;;;;;3.87;2.00;;;9.50;99.90;;;;;;5037965;28;20463;-60
2023/01/06 05:01:54;;;;;;;3.80;2.50;;;9.60;99.90;;;;;;5019388;28;20464;-62
2023/01/06 05:04:21;;;;;;;8.50;2.37;;;9.60;99.90;;;;;;5017090;28;20731;-62
2023/01/06 05:06:48;;;;;;;4.40;2.47;;;9.50;99.90;;;;;;5017563;28;20495;-61
2023/01/06 05:09:15;;;;;;;8.03;2.70;;;9.50;99.90;;;;;;5018320;28;20492;-62
2023/01/06 05:11:42;;;;;;;3.93;2.73;;;9.50;99.90;;;;;;5017494;28;20470;-61
2023/01/06 05:14:11;;;;;;;5.53;2.23;;;9.50;99.90;;;;;;5018643;28;20466;-62
2023/01/06 05:16:38;;;;;;;5.43;2.87;;;9.50;99.90;;;;;;5018008;28;20889;-62
2023/01/06 05:19:05;;;;;;;4.60;2.20;;;9.60;99.90;;;;;;5018016;28;20765;-61
2023/01/06 05:21:32;;;;;;;5.23;2.30;;;9.60;99.90;;;;;;5018112;28;20464;-62
2023/01/06 05:24:00;;;;;;;4.17;2.37;;;9.60;99.90;;;;;;5016279;28;20902;-62
2023/01/06 05:26:28;;;;;;;4.00;2.23;;;9.60;99.90;;;;;;5016026;28;20439;-62
2023/01/06 05:28:56;;;;;;;4.63;1.93;;;9.60;99.90;;;;;;5015742;28;20498;-62
2023/01/06 05:31:24;;;;;;;4.07;2.83;;;9.60;99.90;;;;;;5015860;28;20756;-62
2023/01/06 05:33:51;;;;;;;3.80;2.40;;;9.60;99.90;;;;;;5016123;28;20460;-62
2023/01/06 05:36:19;;;;;;;5.63;2.27;;;9.50;99.90;;;;;;5016694;28;20486;-62
2023/01/06 05:38:51;;;;;;;7.20;1.93;;;9.40;99.90;;;;;;5018267;28;20991;-61
2023/01/06 05:41:19;;;;;;;2.57;1.80;;;9.50;99.90;;;;;;5030436;28;20463;-62
2023/01/06 05:43:46;;;;;;;4.33;2.50;;;9.40;99.90;;;;;;5037123;28;20448;-61
2023/01/06 05:46:13;;;;;;;6.93;2.33;;;9.40;99.90;;;;;;5036814;28;20465;-62
2023/01/06 05:48:42;;;;;;;4.07;2.33;;;9.50;99.90;;;;;;5036599;28;20495;-60
2023/01/06 05:51:11;;;;;;;3.70;2.83;;;9.50;99.90;;;;;;5037225;28;20558;-62
2023/01/06 05:53:42;;;;;;;4.67;2.30;;;9.50;99.90;;;;;;5035379;28;20481;-62
2023/01/06 05:56:12;;;;;;;4.70;2.47;;;9.50;99.90;;;;;;5035834;28;20763;-61
2023/01/06 05:58:40;;;;;;;8.13;2.10;;;9.50;99.90;;;;;;5016450;28;20881;-60
2023/01/06 06:01:14;;;;;;;3.33;2.03;;;9.50;99.90;;;;;;5016083;28;20456;-61
2023/01/06 06:03:43;;;;;;;6.73;2.77;;;9.60;99.90;;;;;;5017435;28;20784;-61
2023/01/06 06:06:10;;;;;;;5.53;2.10;;;9.60;99.90;;;;;;5016327;28;20499;-60
2023/01/06 06:08:37;;;;;;;3.60;2.20;;;9.60;99.90;;;;;;5015803;28;20495;-61
2023/01/06 06:11:06;;;;;;;3.27;2.00;;;9.60;99.90;;;;;;5016939;28;20464;-62
2023/01/06 06:13:33;;;;;;;3.47;2.33;;;9.60;99.90;;;;;;5016566;28;20522;-61
2023/01/06 06:16:04;;;;;;;3.20;1.87;;;9.60;99.90;;;;;;5022548;28;20475;-61
2023/01/06 06:18:32;;;;;;;7.57;2.20;;;9.60;99.90;;;;;;5040457;28;20466;-61
2023/01/06 06:21:04;;;;;;;3.23;2.00;;;9.60;99.90;;;;;;5038858;28;20914;-61
2023/01/06 06:23:32;;;;;;;5.00;2.40;;;9.60;99.90;;;;;;5032737;28;20490;-61
2023/01/06 06:25:59;;;;;;;2.97;1.80;;;9.60;99.90;;;;;;5021334;28;20471;-61
2023/01/06 06:28:27;;;;;;;3.63;2.40;;;9.60;99.90;;;;;;5020933;28;20495;-61
2023/01/06 06:30:54;;;;;;;3.17;1.90;;;9.60;99.90;;;;;;5021485;28;20550;-61
2023/01/06 06:33:21;;;;;;;7.33;2.57;;;9.60;99.90;;;;;;5020743;28;20916;-62
2023/01/06 06:35:56;;;;;;;6.00;2.70;;;9.60;99.90;;;;;;5020181;28;20471;-61
2023/01/06 06:38:25;;;;;;;4.10;2.37;;;9.60;99.90;;;;;;5025319;28;20471;-60
2023/01/06 06:40:52;;;;;;;4.37;2.00;;;9.70;99.90;;;;;;5040075;28;20474;-61
2023/01/06 06:43:20;;;;;;;2.30;1.90;;;9.70;99.90;;;;;;5028409;28;20473;-64
2023/01/06 06:45:48;;;;;;;2.70;1.90;;;9.70;99.90;;;;;;5021030;28;20467;-64
2023/01/06 06:48:16;;;;;;;2.57;1.80;;;9.70;99.90;;;;;;5020532;28;20495;-64
2023/01/06 06:50:43;;;;;;;4.03;2.10;;;9.70;99.90;;;;;;5020621;28;20967;-64
2023/01/06 06:53:10;;;;;;;5.33;2.10;;;9.60;99.90;;;;;;5020707;28;20470;-64
2023/01/06 06:55:39;;;;;;;3.43;2.63;;;9.60;99.90;;;;;;5020737;28;20464;-63
2023/01/06 06:58:06;;;;;;;2.87;1.80;;;9.60;99.90;;;;;;5019701;28;20463;-64
2023/01/06 07:00:33;;;;;;;3.40;2.57;;;9.60;99.90;;;;;;5020410;28;20471;-64
2023/01/06 07:03:00;;;;;;;3.67;1.70;;;9.60;99.90;;;;;;5019612;28;20905;-64
2023/01/06 07:05:28;;;;;;;4.00;2.13;;;9.60;99.90;;;;;;5020330;28;20488;-64
2023/01/06 07:07:55;;;;;;;2.80;2.10;;;9.60;99.90;;;;;;5020096;28;20468;-64
2023/01/06 07:10:22;;;;;;;2.63;1.47;;;9.60;99.90;;;;;;5020561;28;20498;-64
2023/01/06 07:12:51;;;;;;;3.17;2.00;;;9.60;99.90;;;;;;5020426;28;20464;-64
2023/01/06 07:15:18;;;;;;;2.97;1.70;;;9.60;99.90;;;;;;5020435;28;20486;-64
2023/01/06 07:17:45;;;;;;;3.00;1.83;;;9.50;99.90;;;;;;5020681;28;20460;-64
2023/01/06 07:20:12;;;;;;;2.83;1.63;;;9.60;99.90;;;;;;5020127;28;20467;-64
2023/01/06 07:22:40;;;;;;;2.60;1.70;;;9.60;99.90;;;;;;5020323;28;20464;-65
2023/01/06 07:25:09;;;;;;;2.87;1.60;;;9.60;99.90;;;;;;5020258;28;20907;-64
2023/01/06 07:27:37;;;;;;;4.77;1.70;;;9.60;99.90;;;;;;5020255;28;20551;-64
2023/01/06 07:30:06;;;;;;;4.20;1.90;;;9.60;99.90;;;;;;5019068;28;20925;-64
2023/01/06 07:32:33;;;;;;;3.20;2.00;;;9.60;99.90;;;;;;5019998;28;20468;-64
2023/01/06 07:35:01;;;;;;;2.80;2.00;;;9.60;99.90;;;;;;5019213;28;20443;-63
2023/01/06 07:37:28;;;;;;;3.17;1.83;;;9.60;99.90;;;;;;5020031;28;20885;-64
2023/01/06 07:39:55;;;;;;;3.57;2.10;;;9.60;99.90;;;;;;5020315;28;20435;-65
2023/01/06 07:42:23;;;;;;;5.57;3.77;;;9.60;99.90;;;;;;5020129;28;20475;-64
2023/01/06 07:44:50;;;;;;;5.60;2.20;;;9.60;99.90;;;;;;5019788;28;20538;-64
2023/01/06 07:47:19;;;;;;;2.27;1.90;;;9.60;99.90;;;;;;5019728;28;20464;-64
2023/01/06 07:49:46;;;;;;;4.10;1.97;;;9.60;99.90;;;;;;5019851;28;20784;-63
2023/01/06 07:52:21;;;;;;;3.83;1.87;;;9.60;99.90;;;;;;5019382;28;20467;-63
2023/01/06 07:54:48;;;;;;;2.50;1.90;;;9.60;99.90;;;;;;5019275;28;20460;-64
2023/01/06 07:57:15;;;;;;;2.57;1.73;;;9.70;99.90;;;;;;5018963;28;20463;-64
2023/01/06 07:59:42;;;;;;;2.00;1.30;;;9.70;99.90;;;;;;5018529;28;20460;-63
2023/01/06 08:02:10;;;;;;;2.00;1.60;;;9.70;99.90;;;;;;5018757;28;20471;-64
2023/01/06 08:04:39;;;;;;;4.40;1.90;;;9.70;99.90;;;;;;5018435;28;20474;-64
2023/01/06 08:07:06;;;;;;;3.10;1.97;;;9.80;99.90;;;;;;5017373;28;21068;-64
2023/01/06 08:09:33;;;;;;;2.40;1.80;;;9.80;99.90;;;;;;5036075;28;20533;-63
2023/01/06 08:12:00;;;;;;;2.20;1.83;;;9.80;99.90;;;;;;5022972;28;20459;-63
2023/01/06 08:14:28;;;;;;;2.97;1.87;;;9.80;99.90;;;;;;5023897;28;20482;-62
2023/01/06 08:16:55;;;;;;;2.43;1.63;;;9.80;99.90;;;;;;5027671;28;20467;-63
2023/01/06 08:19:22;;;;;;;2.43;1.73;;;9.80;99.90;;;;;;5026006;28;20450;-64
2023/01/06 08:21:50;;;;;;;3.47;2.40;;;9.80;99.90;;;;;;5022690;28;20905;-63
2023/01/06 08:24:17;;;;;;;4.23;1.93;;;9.80;99.90;;;;;;5024926;28;20900;-64
2023/01/06 08:26:44;;;;;;;3.60;1.60;;;9.80;99.90;;;;;;5034260;28;20463;-63
2023/01/06 08:29:12;;;;;;;4.07;2.00;;;9.80;99.90;;;;;;5037001;28;20672;-65
2023/01/06 08:31:39;;;;;;;2.00;1.43;;;9.70;99.90;;;;;;5036879;28;20463;-64
2023/01/06 08:34:06;;;;;;;3.20;1.80;;;9.70;99.90;;;;;;5036737;28;20463;-64
2023/01/06 08:36:33;;;;;;;3.67;1.80;;;9.80;99.90;;;;;;5038140;28;20491;-64
2023/01/06 08:39:01;;;;;;;3.27;1.80;;;9.70;99.90;;;;;;5026489;28;20472;-64
2023/01/06 08:41:29;;;;;;;2.83;1.83;;;9.70;99.90;;;;;;5017010;28;20905;-64
2023/01/06 08:43:56;;;;;;;2.83;1.60;;;9.60;99.90;;;;;;5016605;28;20464;-64
2023/01/06 08:46:25;;;;;;;2.10;1.60;;;9.60;99.90;;;;;;5016991;28;20470;-64
2023/01/06 08:48:52;;;;;;;3.00;1.77;;;9.60;99.90;;;;;;5016865;28;20473;-64
2023/01/06 08:51:22;;;;;;;5.33;2.10;;;9.60;99.90;;;;;;5016556;28;20769;-64
2023/01/06 08:53:49;;;;;;;3.33;1.93;;;9.50;99.90;;;;;;5016709;28;20443;-64
2023/01/06 08:56:20;;;;;;;3.47;1.70;;;9.50;99.90;;;;;;5016611;28;20468;-64
2023/01/06 08:58:51;;;;;;;2.70;2.00;;;9.60;99.90;;;;;;5018291;28;20434;-64
2023/01/06 09:01:20;;;;;;;4.37;2.13;;;9.60;99.90;;;;;;5018554;28;20463;-64
2023/01/06 09:03:48;;;;;;;2.67;2.27;;;9.70;99.90;;;;;;5018696;28;20743;-64
2023/01/06 09:06:16;;;;;;;3.07;2.40;;;9.70;99.90;;;;;;5017965;28;20491;-64
2023/01/06 09:08:43;;;;;;;5.50;2.03;;;9.70;99.90;;;;;;5018267;28;20723;-64
2023/01/06 09:11:12;;;;;;;5.50;2.27;;;9.80;99.90;;;;;;5018367;28;20487;-64
2023/01/06 09:13:41;;;;;;;2.73;1.90;;;9.90;99.90;;;;;;5017975;28;20467;-64
2023/01/06 09:16:09;;;;;;;4.93;2.27;;;9.90;99.90;;;;;;5017717;28;20464;-64
2023/01/06 09:18:37;;;;;;;2.40;2.00;;;9.90;99.90;;;;;;5018045;28;20753;-64
2023/01/06 09:21:05;;;;;;;2.70;1.90;;;9.90;99.90;;;;;;5018311;28;20892;-64
2023/01/06 09:23:32;;;;;;;2.20;2.00;;;10.00;99.90;;;;;;5017771;28;20464;-64
2023/01/06 09:26:00;;;;;;;2.97;2.20;;;10.00;99.90;;;;;;5017397;28;20551;-64
2023/01/06 09:28:27;;;;;;;2.73;2.30;;;10.00;99.90;;;;;;5017830;28;20451;-64
2023/01/06 09:30:55;;;;;;;3.00;2.00;;;10.00;99.90;;;;;;5016665;28;20492;-64
2023/01/06 09:33:22;;;;;;;2.63;2.17;;;9.90;99.90;;;;;;5018194;28;20493;-63
2023/01/06 09:35:49;;;;;;;4.57;1.90;;;9.90;99.90;;;;;;5019199;28;20467;-62
2023/01/06 09:38:17;;;;;;;4.47;2.97;;;9.80;99.90;;;;;;5017643;28;20468;-62
2023/01/06 09:40:56;;;;;;;2.80;2.50;;;9.90;99.90;;;;;;5018192;28;20495;-63
2023/01/06 09:43:36;;;;;;;2.47;2.07;;;9.80;99.90;;;;;;5018566;28;20839;-63
2023/01/06 09:46:06;;;;;;;5.47;2.83;;;9.80;99.90;;;;;;5018276;28;20446;-63
2023/01/06 09:48:38;;;;;;;3.10;2.70;;;9.80;99.90;;;;;;5019728;28;20474;-63
2023/01/06 09:51:07;;;;;;;5.23;2.70;;;9.80;99.90;;;;;;5035947;28;20495;-64
2023/01/06 09:53:38;;;;;;;3.87;3.27;;;9.90;99.90;;;;;;5035938;28;20930;-65
2023/01/06 09:56:09;;;;;;;4.30;2.80;;;9.80;99.90;;;;;;5035838;28;20465;-64
2023/01/06 09:58:40;;;;;;;2.80;2.50;;;9.90;99.90;;;;;;5036182;28;20463;-63
2023/01/06 10:01:12;;;;;;;3.33;3.03;;;9.90;99.90;;;;;;5038452;28;20470;-64
2023/01/06 10:03:39;;;;;;;3.60;3.30;;;9.90;99.90;;;;;;5026965;28;20484;-63
2023/01/06 10:06:19;;;;;;;6.33;3.13;;;9.90;99.90;;;;;;5017180;28;20467;-63
2023/01/06 10:08:54;;;;;;;4.90;3.40;;;9.90;99.90;;;;;;5016854;28;20498;-64
2023/01/06 10:11:30;;;;;;;3.43;3.07;;;9.90;99.90;;;;;;5016748;28;20832;-65
2023/01/06 10:14:10;;;;;;;3.93;2.87;;;9.90;99.90;;;;;;5016042;28;20927;-66
2023/01/06 10:16:53;;;;;;;3.37;3.03;;;9.80;99.90;;;;;;5016542;28;20885;-65
2023/01/06 10:19:29;;;;;;;4.10;3.80;;;9.80;99.90;;;;;;5016781;28;20869;-64
2023/01/06 10:22:04;;;;;;;4.00;3.20;;;9.90;99.90;;;;;;5022036;28;20459;-64
2023/01/06 10:24:43;;;;;;;3.73;3.40;;;9.90;99.90;;;;;;5026808;28;20467;-64
2023/01/06 10:27:21;;;;;;;5.60;3.23;;;9.90;99.90;;;;;;5026234;28;20753;-64
2023/01/06 10:29:51;;;;;;;4.10;3.40;;;10.00;99.90;;;;;;5016937;28;21007;-64
2023/01/06 10:32:20;;;;;;;3.93;3.50;;;10.10;99.90;;;;;;5020652;28;20463;-64
2023/01/06 10:34:50;;;;;;;3.33;3.03;;;10.10;99.90;;;;;;5016745;28;20464;-65
2023/01/06 10:37:22;;;;;;;3.00;2.70;;;10.10;99.90;;;;;;5016685;28;20511;-64
2023/01/06 10:39:55;;;;;;;2.87;2.57;;;10.00;99.90;;;;;;5016050;28;20748;-63
2023/01/06 10:45:18;;;;;;;3.90;3.60;;;9.90;99.90;;;;;;5015745;28;20439;-66
2023/01/06 10:47:47;;;;;;;4.97;4.57;;;10.00;99.90;;;;;;5028498;28;20477;-64
2023/01/06 10:50:16;;;;;;;5.03;4.53;;;9.90;99.90;;;;;;5033727;28;20494;-65
2023/01/06 10:52:43;;;;;;;6.47;5.07;;;10.00;99.90;;;;;;5034426;28;20562;-64
2023/01/06 10:55:26;;;;;;;4.93;4.53;;;10.00;99.90;;;;;;5034851;28;20522;-64
2023/01/06 10:57:57;;;;;;;5.03;4.53;;;10.00;99.90;;;;;;5034899;28;20459;-64
2023/01/06 11:00:25;;;;;;;6.30;5.70;;;10.00;99.90;;;;;;5034223;28;20459;-64
2023/01/06 11:02:55;;;;;;;4.73;4.33;;;10.00;99.90;;;;;;5035933;28;20467;-65
2023/01/06 11:05:24;;;;;;;4.10;3.70;;;10.00;99.90;;;;;;5040975;28;20463;-64
2023/01/06 11:07:57;;;;;;;3.83;3.50;;;10.00;99.90;;;;;;5040928;28;20505;-64
2023/01/06 11:10:31;;;;;;;3.90;3.60;;;10.00;99.90;;;;;;5041348;28;20494;-65
2023/01/06 11:13:01;;;;;;;5.00;3.20;;;10.00;99.90;;;;;;5041084;28;20467;-64
2023/01/06 11:15:40;;;;;;;5.33;3.00;;;10.10;99.90;;;;;;5041158;28;20437;-65
2023/01/06 11:18:20;;;;;;;3.50;3.00;;;10.10;99.90;;;;;;5040917;28;20893;-65
2023/01/06 11:21:02;;;;;;;4.00;3.60;;;10.20;99.90;;;;;;5040154;28;20728;-64
2023/01/06 11:23:29;;;;;;;3.77;3.47;;;10.20;99.90;;;;;;5039696;28;20647;-64
2023/01/06 11:26:13;;;;;;;3.97;3.67;;;10.20;99.90;;;;;;5039455;28;20445;-64
2023/01/06 11:28:41;;;;;;;4.60;4.20;;;10.30;99.90;;;;;;5018947;28;20460;-64
2023/01/06 11:31:10;;;;;;;3.43;3.13;;;10.30;99.90;;;;;;5019394;28;20487;-64
2023/01/06 11:33:48;;;;;;;3.40;3.10;;;10.30;99.90;;;;;;5019826;28;20586;-65
2023/01/06 11:36:16;;;;;;;4.50;4.10;;;10.40;99.90;;;;;;5020347;28;20463;-64
2023/01/06 11:38:45;;;;;;;3.83;3.43;;;10.30;99.90;;;;;;5019961;28;20500;-64
2023/01/06 11:41:26;;;;;;;5.20;4.70;;;10.30;99.90;;;;;;5026526;28;20446;-62
2023/01/06 11:43:57;;;;;;;5.47;3.90;;;10.30;99.90;;;;;;5025447;28;20482;-64
2023/01/06 11:46:25;;;;;;;4.20;3.50;;;10.40;99.90;;;;;;5020116;28;20485;-64
2023/01/06 11:49:00;;;;;;;3.70;3.40;;;10.40;99.90;;;;;;5026209;28;20475;-64
2023/01/06 11:51:46;;;;;;;3.90;3.40;;;10.50;99.90;;;;;;5024038;28;20506;-64
2023/01/06 11:54:28;;;;;;;4.30;4.00;;;10.50;99.90;;;;;;5018630;28;20446;-64
2023/01/06 11:57:12;;;;;;;4.20;3.63;;;10.60;99.90;;;;;;5030719;28;20793;-64
2023/01/06 11:59:54;;;;;;;4.50;4.10;;;10.50;99.90;;;;;;5025140;28;20479;-64
2023/01/06 12:02:30;;;;;;;3.80;3.50;;;10.50;99.90;;;;;;5022686;28;20748;-63
2023/01/06 12:05:02;;;;;;;3.60;3.30;;;10.60;99.90;;;;;;5019377;28;20439;-64
2023/01/06 12:07:33;;;;;;;4.50;3.93;;;10.60;99.90;;;;;;5023983;28;20506;-64
2023/01/06 12:10:05;;;;;;;3.80;3.50;;;10.60;99.90;;;;;;5019341;28;20478;-64
2023/01/06 12:12:32;;;;;;;4.00;3.60;;;10.70;99.90;;;;;;5022766;28;20467;-64
2023/01/06 12:14:59;;;;;;;4.40;3.63;;;10.80;99.90;;;;;;5020433;28;21262;-64
2023/01/06 12:17:41;;;;;;;4.50;4.10;;;10.80;99.90;;;;;;5028678;28;20913;-64
2023/01/06 12:20:16;;;;;;;3.60;3.20;;;10.80;99.90;;;;;;5031579;28;20484;-64
2023/01/06 12:22:46;;;;;;;3.73;3.30;;;10.80;99.90;;;;;;5036036;28;20462;-64
2023/01/06 12:25:18;;;;;;;3.50;3.13;;;10.80;99.90;;;;;;5030971;28;20435;-64
2023/01/06 12:27:50;;;;;;;6.17;3.37;;;10.70;99.90;;;;;;5019174;28;20571;-64
2023/01/06 12:30:26;;;;;;;3.33;3.03;;;10.80;99.90;;;;;;5037261;28;20465;-64
2023/01/06 12:32:56;;;;;;;4.77;3.43;;;10.70;99.90;;;;;;5038153;28;20773;-64
2023/01/06 12:35:29;;;;;;;3.40;3.10;;;10.70;99.90;;;;;;5038340;28;20442;-64
2023/01/06 12:38:01;;;;;;;3.60;3.30;;;10.70;99.90;;;;;;5038795;28;20438;-64
2023/01/06 12:40:35;;;;;;;5.40;3.20;;;10.80;99.90;;;;;;5038625;28;20465;-64
2023/01/06 12:43:12;;;;;;;4.10;3.60;;;10.80;99.90;;;;;;5038112;28;20437;-64
2023/01/06 12:45:47;;;;;;;4.57;2.97;;;10.90;99.90;;;;;;5038563;28;20469;-64
2023/01/06 12:48:22;;;;;;;3.40;2.90;;;10.90;99.90;;;;;;5038311;28;20469;-64
2023/01/06 12:50:55;;;;;;;4.43;3.07;;;11.00;99.90;;;;;;5038690;28;20491;-64
2023/01/06 12:53:26;;;;;;;8.10;2.97;;;11.00;99.90;;;;;;5038112;28;20467;-64
2023/01/06 12:56:04;;;;;;;4.00;2.73;;;11.00;99.90;;;;;;5036194;28;20463;-64
2023/01/06 12:58:40;;;;;;;3.20;2.90;;;11.00;99.90;;;;;;5031434;28;20463;-64
2023/01/06 13:01:11;;;;;;;3.37;2.70;;;11.00;99.90;;;;;;5037104;28;20469;-64
2023/01/06 13:04:16;;;;;;;4.27;3.10;;;10.90;99.90;;;;;;5038360;28;20522;-64
2023/01/06 13:07:07;;;;;;;3.77;3.47;;;10.80;99.90;;;;;;5038016;28;20462;-64
2023/01/06 13:09:48;;;;;;;4.43;2.83;;;10.70;99.90;;;;;;5032436;28;20459;-64
2023/01/06 13:12:39;;;;;;;3.63;3.00;;;10.70;99.90;;;;;;5033176;28;20847;-64
2023/01/06 13:15:13;;;;;;;3.07;2.50;;;10.70;99.90;;;;;;5036137;28;20890;-64
2023/01/06 13:17:44;;;;;;;3.07;2.47;;;10.70;99.90;;;;;;5030438;28;20478;-64
2023/01/06 13:20:19;;;;;;;2.70;2.30;;;10.60;99.90;;;;;;5020715;28;20751;-63